sensor_id;sensor_type;location;lat;lon;timestamp;temperature;humidity
33841;DHT22;20142;28.494;-16.312;2023-05-16T00:03:48;18.60;74.40
33841;DHT22;20142;28.494;-16.312;2023-05-16T00:08:49;18.60;74.50
33841;DHT22;20142;28.494;-16.312;2023-05-16T00:13:51;18.70;74.50
33841;DHT22;20142;28.494;-16.312;2023-05-16T00:18:53;18.50;74.40
33841;DHT22;20142;28.494;-16.312;2023-05-16T00:23:57;18.50;74.70
33841;DHT22;20142;28.494;-16.312;2023-05-16T00:28:59;18.30;74.80
33841;DHT22;20142;28.494;-16.312;2023-05-16T00:34:00;18.20;75.20
33841;DHT22;20142;28.494;-16.312;2023-05-16T00:39:02;18.30;75.40
33841;DHT22;20142;28.494;-16.312;2023-05-16T00:44:04;18.20;75.20
33841;DHT22;20142;28.494;-16.312;2023-05-16T00:49:07;18.20;75.60
33841;DHT22;20142;28.494;-16.312;2023-05-16T00:54:10;18.30;76.10
33841;DHT22;20142;28.494;-16.312;2023-05-16T00:59:12;18.30;76.30
33841;DHT22;20142;28.494;-16.312;2023-05-16T01:04:14;18.60;76.20
33841;DHT22;20142;28.494;-16.312;2023-05-16T01:09:15;18.50;76.20
33841;DHT22;20142;28.494;-16.312;2023-05-16T01:19:59;18.30;77.10
33841;DHT22;20142;28.494;-16.312;2023-05-16T01:25:37;18.20;77.20
33841;DHT22;20142;28.494;-16.312;2023-05-16T01:30:45;18.20;77.40
33841;DHT22;20142;28.494;-16.312;2023-05-16T01:42:04;18.00;77.80
33841;DHT22;20142;28.494;-16.312;2023-05-16T01:47:15;17.90;78.10
33841;DHT22;20142;28.494;-16.312;2023-05-16T01:57:25;17.90;78.00
33841;DHT22;20142;28.494;-16.312;2023-05-16T02:02:27;17.70;78.40
33841;DHT22;20142;28.494;-16.312;2023-05-16T02:07:29;17.70;78.60
33841;DHT22;20142;28.494;-16.312;2023-05-16T02:12:31;17.70;78.80
33841;DHT22;20142;28.494;-16.312;2023-05-16T02:17:32;17.60;78.80
33841;DHT22;20142;28.494;-16.312;2023-05-16T02:22:34;17.60;79.00
33841;DHT22;20142;28.494;-16.312;2023-05-16T02:27:37;17.70;79.10
33841;DHT22;20142;28.494;-16.312;2023-05-16T02:32:39;17.70;79.20
33841;DHT22;20142;28.494;-16.312;2023-05-16T02:37:41;17.70;79.20
33841;DHT22;20142;28.494;-16.312;2023-05-16T02:42:43;17.70;79.20
33841;DHT22;20142;28.494;-16.312;2023-05-16T02:47:44;17.60;79.40
33841;DHT22;20142;28.494;-16.312;2023-05-16T02:52:46;17.70;79.60
33841;DHT22;20142;28.494;-16.312;2023-05-16T02:57:48;18.00;79.80
33841;DHT22;20142;28.494;-16.312;2023-05-16T03:02:51;17.90;79.40
33841;DHT22;20142;28.494;-16.312;2023-05-16T03:07:52;18.00;79.00
33841;DHT22;20142;28.494;-16.312;2023-05-16T03:12:54;18.10;79.10
33841;DHT22;20142;28.494;-16.312;2023-05-16T03:17:56;18.10;79.00
33841;DHT22;20142;28.494;-16.312;2023-05-16T03:22:57;18.00;78.90
33841;DHT22;20142;28.494;-16.312;2023-05-16T03:27:59;18.10;79.00
33841;DHT22;20142;28.494;-16.312;2023-05-16T03:33:01;18.00;78.80
33841;DHT22;20142;28.494;-16.312;2023-05-16T03:38:04;17.90;78.90
33841;DHT22;20142;28.494;-16.312;2023-05-16T03:43:06;17.80;79.20
33841;DHT22;20142;28.494;-16.312;2023-05-16T03:48:08;17.80;79.30
33841;DHT22;20142;28.494;-16.312;2023-05-16T03:53:10;17.80;79.40
33841;DHT22;20142;28.494;-16.312;2023-05-16T03:58:12;17.60;79.60
33841;DHT22;20142;28.494;-16.312;2023-05-16T04:03:13;17.70;79.80
33841;DHT22;20142;28.494;-16.312;2023-05-16T04:08:15;17.70;80.10
33841;DHT22;20142;28.494;-16.312;2023-05-16T04:13:17;17.70;80.30
33841;DHT22;20142;28.494;-16.312;2023-05-16T04:18:19;17.80;80.50
33841;DHT22;20142;28.494;-16.312;2023-05-16T04:23:20;17.80;80.50
33841;DHT22;20142;28.494;-16.312;2023-05-16T04:28:22;17.90;80.70
33841;DHT22;20142;28.494;-16.312;2023-05-16T04:33:24;18.00;81.10
33841;DHT22;20142;28.494;-16.312;2023-05-16T04:38:25;18.00;80.60
33841;DHT22;20142;28.494;-16.312;2023-05-16T04:43:27;17.90;80.50
33841;DHT22;20142;28.494;-16.312;2023-05-16T04:48:29;17.90;80.80
33841;DHT22;20142;28.494;-16.312;2023-05-16T04:53:31;17.80;80.90
33841;DHT22;20142;28.494;-16.312;2023-05-16T04:58:32;17.80;81.10
33841;DHT22;20142;28.494;-16.312;2023-05-16T05:03:34;17.80;80.90
33841;DHT22;20142;28.494;-16.312;2023-05-16T05:08:36;17.70;81.00
33841;DHT22;20142;28.494;-16.312;2023-05-16T05:13:38;17.60;81.40
33841;DHT22;20142;28.494;-16.312;2023-05-16T05:18:39;17.70;81.40
33841;DHT22;20142;28.494;-16.312;2023-05-16T05:23:41;17.60;81.40
33841;DHT22;20142;28.494;-16.312;2023-05-16T05:28:43;17.60;81.90
33841;DHT22;20142;28.494;-16.312;2023-05-16T05:33:45;17.70;82.00
33841;DHT22;20142;28.494;-16.312;2023-05-16T05:38:46;17.70;82.00
33841;DHT22;20142;28.494;-16.312;2023-05-16T05:43:48;17.70;82.10
33841;DHT22;20142;28.494;-16.312;2023-05-16T05:48:49;17.70;82.00
33841;DHT22;20142;28.494;-16.312;2023-05-16T05:53:52;17.60;82.30
33841;DHT22;20142;28.494;-16.312;2023-05-16T05:58:54;17.50;82.60
33841;DHT22;20142;28.494;-16.312;2023-05-16T06:03:56;17.50;82.50
33841;DHT22;20142;28.494;-16.312;2023-05-16T06:08:58;17.40;82.50
33841;DHT22;20142;28.494;-16.312;2023-05-16T06:13:59;17.40;82.70
33841;DHT22;20142;28.494;-16.312;2023-05-16T06:19:01;17.30;82.50
33841;DHT22;20142;28.494;-16.312;2023-05-16T06:24:03;17.40;82.50
33841;DHT22;20142;28.494;-16.312;2023-05-16T06:29:04;17.30;82.70
33841;DHT22;20142;28.494;-16.312;2023-05-16T06:34:06;17.40;82.50
33841;DHT22;20142;28.494;-16.312;2023-05-16T06:39:08;17.30;82.70
33841;DHT22;20142;28.494;-16.312;2023-05-16T06:44:10;17.30;82.40
33841;DHT22;20142;28.494;-16.312;2023-05-16T06:49:11;17.40;82.30
33841;DHT22;20142;28.494;-16.312;2023-05-16T06:54:13;17.50;82.50
33841;DHT22;20142;28.494;-16.312;2023-05-16T06:59:15;17.60;81.70
33841;DHT22;20142;28.494;-16.312;2023-05-16T07:04:16;17.70;81.90
33841;DHT22;20142;28.494;-16.312;2023-05-16T07:09:19;17.70;81.80
33841;DHT22;20142;28.494;-16.312;2023-05-16T07:14:21;17.80;81.60
33841;DHT22;20142;28.494;-16.312;2023-05-16T07:19:23;17.80;81.90
33841;DHT22;20142;28.494;-16.312;2023-05-16T07:24:24;17.90;81.50
33841;DHT22;20142;28.494;-16.312;2023-05-16T07:29:26;18.00;81.30
33841;DHT22;20142;28.494;-16.312;2023-05-16T07:34:28;18.10;81.30
33841;DHT22;20142;28.494;-16.312;2023-05-16T07:39:30;18.10;81.60
33841;DHT22;20142;28.494;-16.312;2023-05-16T07:44:31;18.10;81.80
33841;DHT22;20142;28.494;-16.312;2023-05-16T07:49:33;17.90;82.80
33841;DHT22;20142;28.494;-16.312;2023-05-16T07:54:35;17.90;83.50
33841;DHT22;20142;28.494;-16.312;2023-05-16T07:59:37;17.90;83.60
33841;DHT22;20142;28.494;-16.312;2023-05-16T08:04:39;18.20;82.90
33841;DHT22;20142;28.494;-16.312;2023-05-16T08:09:41;18.40;82.70
33841;DHT22;20142;28.494;-16.312;2023-05-16T08:14:43;18.60;82.50
33841;DHT22;20142;28.494;-16.312;2023-05-16T08:19:44;18.50;83.00
33841;DHT22;20142;28.494;-16.312;2023-05-16T08:24:46;18.80;83.40
33841;DHT22;20142;28.494;-16.312;2023-05-16T08:29:48;19.00;82.30
33841;DHT22;20142;28.494;-16.312;2023-05-16T08:34:49;18.70;82.60
33841;DHT22;20142;28.494;-16.312;2023-05-16T08:39:51;18.50;83.40
33841;DHT22;20142;28.494;-16.312;2023-05-16T08:44:53;18.70;82.50
33841;DHT22;20142;28.494;-16.312;2023-05-16T08:49:57;18.80;82.70
33841;DHT22;20142;28.494;-16.312;2023-05-16T08:55:03;19.40;81.60
33841;DHT22;20142;28.494;-16.312;2023-05-16T09:00:10;19.50;81.20
33841;DHT22;20142;28.494;-16.312;2023-05-16T09:05:16;19.50;81.00
33841;DHT22;20142;28.494;-16.312;2023-05-16T09:10:17;19.70;81.30
33841;DHT22;20142;28.494;-16.312;2023-05-16T09:15:19;20.00;79.30
33841;DHT22;20142;28.494;-16.312;2023-05-16T09:20:24;20.10;80.10
33841;DHT22;20142;28.494;-16.312;2023-05-16T09:25:29;20.40;79.80
33841;DHT22;20142;28.494;-16.312;2023-05-16T09:30:32;20.60;79.40
33841;DHT22;20142;28.494;-16.312;2023-05-16T09:35:34;20.90;78.30
33841;DHT22;20142;28.494;-16.312;2023-05-16T09:40:39;21.10;77.80
33841;DHT22;20142;28.494;-16.312;2023-05-16T09:45:45;21.30;77.20
33841;DHT22;20142;28.494;-16.312;2023-05-16T09:50:50;21.10;75.80
33841;DHT22;20142;28.494;-16.312;2023-05-16T09:56:02;20.60;77.50
33841;DHT22;20142;28.494;-16.312;2023-05-16T10:01:08;20.80;76.40
33841;DHT22;20142;28.494;-16.312;2023-05-16T10:06:11;21.00;75.10
33841;DHT22;20142;28.494;-16.312;2023-05-16T10:11:14;21.10;75.20
33841;DHT22;20142;28.494;-16.312;2023-05-16T10:16:17;21.20;74.60
33841;DHT22;20142;28.494;-16.312;2023-05-16T10:21:25;21.30;74.80
33841;DHT22;20142;28.494;-16.312;2023-05-16T10:26:29;21.30;73.90
33841;DHT22;20142;28.494;-16.312;2023-05-16T10:31:33;21.20;74.20
33841;DHT22;20142;28.494;-16.312;2023-05-16T10:36:35;21.30;74.20
33841;DHT22;20142;28.494;-16.312;2023-05-16T10:41:37;21.40;73.50
33841;DHT22;20142;28.494;-16.312;2023-05-16T10:46:39;21.10;72.70
33841;DHT22;20142;28.494;-16.312;2023-05-16T10:51:41;21.00;73.30
33841;DHT22;20142;28.494;-16.312;2023-05-16T10:56:42;21.60;73.50
33841;DHT22;20142;28.494;-16.312;2023-05-16T11:01:51;22.20;73.30
33841;DHT22;20142;28.494;-16.312;2023-05-16T11:06:57;22.40;71.90
33841;DHT22;20142;28.494;-16.312;2023-05-16T11:12:00;22.40;71.80
33841;DHT22;20142;28.494;-16.312;2023-05-16T11:17:10;22.50;72.50
33841;DHT22;20142;28.494;-16.312;2023-05-16T11:32:36;22.10;72.10
33841;DHT22;20142;28.494;-16.312;2023-05-16T11:37:38;22.20;71.30
33841;DHT22;20142;28.494;-16.312;2023-05-16T11:42:42;22.30;71.50
33841;DHT22;20142;28.494;-16.312;2023-05-16T11:47:47;23.00;71.60
33841;DHT22;20142;28.494;-16.312;2023-05-16T11:52:53;23.00;69.20
33841;DHT22;20142;28.494;-16.312;2023-05-16T11:57:58;22.70;70.30
33841;DHT22;20142;28.494;-16.312;2023-05-16T12:03:02;22.80;69.90
33841;DHT22;20142;28.494;-16.312;2023-05-16T12:08:04;22.50;69.10
33841;DHT22;20142;28.494;-16.312;2023-05-16T12:13:06;22.60;70.50
33841;DHT22;20142;28.494;-16.312;2023-05-16T12:18:09;22.80;68.40
33841;DHT22;20142;28.494;-16.312;2023-05-16T12:23:12;22.50;69.10
33841;DHT22;20142;28.494;-16.312;2023-05-16T12:28:15;22.30;68.40
33841;DHT22;20142;28.494;-16.312;2023-05-16T12:33:16;22.20;69.60
33841;DHT22;20142;28.494;-16.312;2023-05-16T12:38:18;22.40;69.30
33841;DHT22;20142;28.494;-16.312;2023-05-16T12:43:21;22.60;70.00
33841;DHT22;20142;28.494;-16.312;2023-05-16T12:48:30;23.10;68.00
33841;DHT22;20142;28.494;-16.312;2023-05-16T12:53:41;23.20;67.50
33841;DHT22;20142;28.494;-16.312;2023-05-16T12:58:45;23.10;67.60
33841;DHT22;20142;28.494;-16.312;2023-05-16T13:03:51;22.90;68.20
33841;DHT22;20142;28.494;-16.312;2023-05-16T13:08:53;23.00;68.40
33841;DHT22;20142;28.494;-16.312;2023-05-16T13:13:55;23.50;67.50
33841;DHT22;20142;28.494;-16.312;2023-05-16T13:18:57;23.20;67.70
33841;DHT22;20142;28.494;-16.312;2023-05-16T13:23:59;23.10;68.40
33841;DHT22;20142;28.494;-16.312;2023-05-16T13:29:01;23.20;68.40
33841;DHT22;20142;28.494;-16.312;2023-05-16T13:34:03;23.20;69.20
33841;DHT22;20142;28.494;-16.312;2023-05-16T13:39:04;23.90;67.70
33841;DHT22;20142;28.494;-16.312;2023-05-16T13:44:06;23.40;67.50
33841;DHT22;20142;28.494;-16.312;2023-05-16T13:49:08;22.70;69.20
33841;DHT22;20142;28.494;-16.312;2023-05-16T13:54:10;22.80;69.00
33841;DHT22;20142;28.494;-16.312;2023-05-16T13:59:11;23.20;69.90
33841;DHT22;20142;28.494;-16.312;2023-05-16T14:04:13;23.60;69.20
33841;DHT22;20142;28.494;-16.312;2023-05-16T14:09:15;23.20;68.60
33841;DHT22;20142;28.494;-16.312;2023-05-16T14:14:17;22.90;69.80
33841;DHT22;20142;28.494;-16.312;2023-05-16T14:19:18;23.20;68.50
33841;DHT22;20142;28.494;-16.312;2023-05-16T14:24:20;23.50;69.00
33841;DHT22;20142;28.494;-16.312;2023-05-16T14:29:22;24.10;67.60
33841;DHT22;20142;28.494;-16.312;2023-05-16T14:34:25;24.00;67.60
33841;DHT22;20142;28.494;-16.312;2023-05-16T14:39:27;26.00;65.90
33841;DHT22;20142;28.494;-16.312;2023-05-16T14:44:28;26.40;63.10
33841;DHT22;20142;28.494;-16.312;2023-05-16T14:49:30;24.80;63.50
33841;DHT22;20142;28.494;-16.312;2023-05-16T14:54:32;24.40;65.80
33841;DHT22;20142;28.494;-16.312;2023-05-16T14:59:33;24.70;65.10
33841;DHT22;20142;28.494;-16.312;2023-05-16T15:04:35;23.80;65.00
33841;DHT22;20142;28.494;-16.312;2023-05-16T15:09:37;24.00;65.90
33841;DHT22;20142;28.494;-16.312;2023-05-16T15:14:39;25.40;65.10
33841;DHT22;20142;28.494;-16.312;2023-05-16T15:19:40;25.30;63.60
33841;DHT22;20142;28.494;-16.312;2023-05-16T15:24:42;24.40;64.10
33841;DHT22;20142;28.494;-16.312;2023-05-16T15:29:44;26.30;65.10
33841;DHT22;20142;28.494;-16.312;2023-05-16T15:34:46;25.30;63.30
33841;DHT22;20142;28.494;-16.312;2023-05-16T15:39:47;26.10;62.80
33841;DHT22;20142;28.494;-16.312;2023-05-16T15:44:49;25.90;62.90
33841;DHT22;20142;28.494;-16.312;2023-05-16T15:49:51;26.90;61.50
33841;DHT22;20142;28.494;-16.312;2023-05-16T15:54:52;28.40;58.70
33841;DHT22;20142;28.494;-16.312;2023-05-16T15:59:54;26.40;58.60
33841;DHT22;20142;28.494;-16.312;2023-05-16T16:04:56;26.10;60.80
33841;DHT22;20142;28.494;-16.312;2023-05-16T16:09:57;28.10;59.20
33841;DHT22;20142;28.494;-16.312;2023-05-16T16:14:59;29.60;56.30
33841;DHT22;20142;28.494;-16.312;2023-05-16T16:20:02;30.00;54.60
33841;DHT22;20142;28.494;-16.312;2023-05-16T16:25:04;30.40;54.10
33841;DHT22;20142;28.494;-16.312;2023-05-16T16:30:08;30.70;51.70
33841;DHT22;20142;28.494;-16.312;2023-05-16T16:35:10;30.70;51.70
33841;DHT22;20142;28.494;-16.312;2023-05-16T16:40:12;30.90;50.80
33841;DHT22;20142;28.494;-16.312;2023-05-16T16:45:14;30.70;50.90
33841;DHT22;20142;28.494;-16.312;2023-05-16T16:50:15;31.20;50.40
33841;DHT22;20142;28.494;-16.312;2023-05-16T16:55:17;31.50;50.00
33841;DHT22;20142;28.494;-16.312;2023-05-16T17:00:19;30.50;50.60
33841;DHT22;20142;28.494;-16.312;2023-05-16T17:05:21;30.80;51.30
33841;DHT22;20142;28.494;-16.312;2023-05-16T17:10:22;30.70;51.10
33841;DHT22;20142;28.494;-16.312;2023-05-16T17:15:25;30.70;50.40
33841;DHT22;20142;28.494;-16.312;2023-05-16T17:20:26;30.70;51.00
33841;DHT22;20142;28.494;-16.312;2023-05-16T17:25:28;30.40;50.60
33841;DHT22;20142;28.494;-16.312;2023-05-16T17:30:30;30.10;51.20
33841;DHT22;20142;28.494;-16.312;2023-05-16T17:35:32;30.20;51.60
33841;DHT22;20142;28.494;-16.312;2023-05-16T17:40:34;28.40;52.20
33841;DHT22;20142;28.494;-16.312;2023-05-16T17:45:36;26.90;54.40
33841;DHT22;20142;28.494;-16.312;2023-05-16T17:50:38;25.00;57.50
33841;DHT22;20142;28.494;-16.312;2023-05-16T17:55:40;24.30;59.80
33841;DHT22;20142;28.494;-16.312;2023-05-16T18:00:43;23.50;61.60
33841;DHT22;20142;28.494;-16.312;2023-05-16T18:05:46;22.80;64.50
33841;DHT22;20142;28.494;-16.312;2023-05-16T18:10:49;22.10;63.90
33841;DHT22;20142;28.494;-16.312;2023-05-16T18:15:51;21.40;64.90
33841;DHT22;20142;28.494;-16.312;2023-05-16T18:20:52;21.10;66.90
33841;DHT22;20142;28.494;-16.312;2023-05-16T18:25:54;20.70;69.30
33841;DHT22;20142;28.494;-16.312;2023-05-16T18:30:56;20.30;70.60
33841;DHT22;20142;28.494;-16.312;2023-05-16T18:35:57;20.00;72.10
33841;DHT22;20142;28.494;-16.312;2023-05-16T18:40:59;19.80;73.00
33841;DHT22;20142;28.494;-16.312;2023-05-16T18:46:02;19.60;74.80
33841;DHT22;20142;28.494;-16.312;2023-05-16T18:51:04;19.40;76.60
33841;DHT22;20142;28.494;-16.312;2023-05-16T18:56:06;19.10;77.50
33841;DHT22;20142;28.494;-16.312;2023-05-16T19:01:07;18.90;77.80
33841;DHT22;20142;28.494;-16.312;2023-05-16T19:06:09;19.00;77.80
33841;DHT22;20142;28.494;-16.312;2023-05-16T19:11:11;19.10;78.00
33841;DHT22;20142;28.494;-16.312;2023-05-16T19:16:13;18.90;78.30
33841;DHT22;20142;28.494;-16.312;2023-05-16T19:21:15;18.70;78.40
33841;DHT22;20142;28.494;-16.312;2023-05-16T19:26:17;18.80;78.70
33841;DHT22;20142;28.494;-16.312;2023-05-16T19:31:19;18.60;79.00
33841;DHT22;20142;28.494;-16.312;2023-05-16T19:36:20;18.40;80.00
33841;DHT22;20142;28.494;-16.312;2023-05-16T19:41:22;18.40;80.20
33841;DHT22;20142;28.494;-16.312;2023-05-16T19:46:24;18.30;80.30
33841;DHT22;20142;28.494;-16.312;2023-05-16T19:51:26;18.20;80.10
33841;DHT22;20142;28.494;-16.312;2023-05-16T19:56:28;18.30;79.90
33841;DHT22;20142;28.494;-16.312;2023-05-16T20:01:29;18.30;79.10
33841;DHT22;20142;28.494;-16.312;2023-05-16T20:06:31;18.20;79.20
33841;DHT22;20142;28.494;-16.312;2023-05-16T20:11:33;18.10;80.10
33841;DHT22;20142;28.494;-16.312;2023-05-16T20:16:35;17.90;80.40
33841;DHT22;20142;28.494;-16.312;2023-05-16T20:21:37;17.80;79.90
33841;DHT22;20142;28.494;-16.312;2023-05-16T20:26:39;17.80;79.30
33841;DHT22;20142;28.494;-16.312;2023-05-16T20:31:40;17.80;80.20
33841;DHT22;20142;28.494;-16.312;2023-05-16T20:36:43;17.80;80.30
33841;DHT22;20142;28.494;-16.312;2023-05-16T20:41:45;17.80;81.20
33841;DHT22;20142;28.494;-16.312;2023-05-16T20:46:47;17.80;81.40
33841;DHT22;20142;28.494;-16.312;2023-05-16T20:51:48;17.70;81.40
33841;DHT22;20142;28.494;-16.312;2023-05-16T20:56:50;17.70;81.70
33841;DHT22;20142;28.494;-16.312;2023-05-16T21:01:52;17.70;81.00
33841;DHT22;20142;28.494;-16.312;2023-05-16T21:06:54;17.80;81.50
33841;DHT22;20142;28.494;-16.312;2023-05-16T21:11:55;17.70;82.50
33841;DHT22;20142;28.494;-16.312;2023-05-16T21:16:58;17.70;82.50
33841;DHT22;20142;28.494;-16.312;2023-05-16T21:22:00;17.90;82.90
33841;DHT22;20142;28.494;-16.312;2023-05-16T21:27:04;17.90;82.80
33841;DHT22;20142;28.494;-16.312;2023-05-16T21:32:05;17.90;82.80
33841;DHT22;20142;28.494;-16.312;2023-05-16T21:37:09;17.80;82.70
33841;DHT22;20142;28.494;-16.312;2023-05-16T21:42:11;17.80;82.20
33841;DHT22;20142;28.494;-16.312;2023-05-16T21:47:13;17.70;82.30
33841;DHT22;20142;28.494;-16.312;2023-05-16T21:52:15;17.70;82.90
33841;DHT22;20142;28.494;-16.312;2023-05-16T21:57:17;17.70;83.10
33841;DHT22;20142;28.494;-16.312;2023-05-16T22:02:19;17.60;82.60
33841;DHT22;20142;28.494;-16.312;2023-05-16T22:07:23;17.70;83.40
33841;DHT22;20142;28.494;-16.312;2023-05-16T22:12:29;17.80;83.50
33841;DHT22;20142;28.494;-16.312;2023-05-16T22:17:30;17.70;82.50
33841;DHT22;20142;28.494;-16.312;2023-05-16T22:22:32;17.70;82.60
33841;DHT22;20142;28.494;-16.312;2023-05-16T22:27:34;17.60;82.50
33841;DHT22;20142;28.494;-16.312;2023-05-16T22:32:35;17.70;82.40
33841;DHT22;20142;28.494;-16.312;2023-05-16T22:37:37;17.80;82.30
33841;DHT22;20142;28.494;-16.312;2023-05-16T22:42:39;17.70;80.70
33841;DHT22;20142;28.494;-16.312;2023-05-16T22:47:41;17.70;81.40
33841;DHT22;20142;28.494;-16.312;2023-05-16T22:52:42;17.60;81.20
33841;DHT22;20142;28.494;-16.312;2023-05-16T22:57:44;17.60;81.60
